Terminal Aerodrome Forecast
Issued by NWS Spokane, WA

Home | Current Version | Previous Version | Text Only | Print | Product List | Glossary On
Versions: 1 2 3 4 5 6 7 8 9 10 11 12 13
000
FTUS46 KOTX 041142
TAFEAT
TAF
KEAT 041142Z 0412/0512 34012KT P6SM VCSH SCT100 BKN120
     FM041900 12005KT P6SM SCT070 BKN100
     FM042100 16005KT P6SM VCSH SCT070 OVC100
     FM050200 30012KT P6SM -SHRA SCT070 OVC100
     FM050600 31011KT P6SM -SHRA VCTS SCT070CB OVC100
     FM050900 33008KT P6SM SCT080 BKN100=

USA.gov is the U.S. government's official web portal to all federal, state and local government web resources and services.